sensor_id;sensor_type;location;lat;lon;timestamp;P1;durP1;ratioP1;P2;durP2;ratioP2
14900;SDS011;7542;49.078;9.194;2023-07-31T00:00:31;0.60;;;0.60;;
14900;SDS011;7542;49.078;9.194;2023-07-31T00:01:33;0.88;;;0.77;;
14900;SDS011;7542;49.078;9.194;2023-07-31T00:02:36;0.60;;;0.60;;
14900;SDS011;7542;49.078;9.194;2023-07-31T00:03:38;1.27;;;1.05;;
14900;SDS011;7542;49.078;9.194;2023-07-31T00:04:40;1.05;;;0.60;;
14900;SDS011;7542;49.078;9.194;2023-07-31T00:05:42;0.50;;;0.50;;
14900;SDS011;7542;49.078;9.194;2023-07-31T00:06:44;1.58;;;0.73;;
14900;SDS011;7542;49.078;9.194;2023-07-31T00:07:46;1.23;;;0.57;;
14900;SDS011;7542;49.078;9.194;2023-07-31T00:08:48;0.55;;;0.55;;
14900;SDS011;7542;49.078;9.194;2023-07-31T00:09:50;0.60;;;0.60;;
14900;SDS011;7542;49.078;9.194;2023-07-31T00:10:52;0.60;;;0.57;;
14900;SDS011;7542;49.078;9.194;2023-07-31T00:11:54;0.43;;;0.43;;
14900;SDS011;7542;49.078;9.194;2023-07-31T00:12:57;0.50;;;0.45;;
14900;SDS011;7542;49.078;9.194;2023-07-31T00:13:59;0.40;;;0.40;;
14900;SDS011;7542;49.078;9.194;2023-07-31T00:15:01;0.40;;;0.40;;
14900;SDS011;7542;49.078;9.194;2023-07-31T00:16:04;1.05;;;0.50;;
14900;SDS011;7542;49.078;9.194;2023-07-31T00:17:06;0.77;;;0.50;;
14900;SDS011;7542;49.078;9.194;2023-07-31T00:18:09;0.50;;;0.50;;
14900;SDS011;7542;49.078;9.194;2023-07-31T00:19:11;0.65;;;0.52;;
14900;SDS011;7542;49.078;9.194;2023-07-31T00:20:13;1.75;;;0.70;;
14900;SDS011;7542;49.078;9.194;2023-07-31T00:21:16;0.65;;;0.57;;
14900;SDS011;7542;49.078;9.194;2023-07-31T00:22:18;0.60;;;0.60;;
14900;SDS011;7542;49.078;9.194;2023-07-31T00:23:20;1.20;;;0.68;;
14900;SDS011;7542;49.078;9.194;2023-07-31T00:24:22;0.40;;;0.40;;
14900;SDS011;7542;49.078;9.194;2023-07-31T00:25:24;0.60;;;0.60;;
14900;SDS011;7542;49.078;9.194;2023-07-31T00:26:27;0.70;;;0.70;;
14900;SDS011;7542;49.078;9.194;2023-07-31T00:27:29;0.73;;;0.70;;
14900;SDS011;7542;49.078;9.194;2023-07-31T00:28:31;0.70;;;0.70;;
14900;SDS011;7542;49.078;9.194;2023-07-31T00:29:33;0.70;;;0.43;;
14900;SDS011;7542;49.078;9.194;2023-07-31T00:30:35;0.40;;;0.40;;
14900;SDS011;7542;49.078;9.194;2023-07-31T00:31:37;0.50;;;0.50;;
14900;SDS011;7542;49.078;9.194;2023-07-31T00:32:39;0.38;;;0.38;;
14900;SDS011;7542;49.078;9.194;2023-07-31T00:33:42;0.52;;;0.52;;
14900;SDS011;7542;49.078;9.194;2023-07-31T00:34:44;0.65;;;0.60;;
14900;SDS011;7542;49.078;9.194;2023-07-31T00:35:46;1.38;;;0.55;;
14900;SDS011;7542;49.078;9.194;2023-07-31T00:36:49;0.82;;;0.60;;
14900;SDS011;7542;49.078;9.194;2023-07-31T00:37:51;1.63;;;0.52;;
14900;SDS011;7542;49.078;9.194;2023-07-31T00:38:54;0.35;;;0.35;;
14900;SDS011;7542;49.078;9.194;2023-07-31T00:39:56;0.50;;;0.50;;
14900;SDS011;7542;49.078;9.194;2023-07-31T00:40:58;0.88;;;0.50;;
14900;SDS011;7542;49.078;9.194;2023-07-31T00:42:00;0.40;;;0.40;;
14900;SDS011;7542;49.078;9.194;2023-07-31T00:43:02;0.52;;;0.50;;
14900;SDS011;7542;49.078;9.194;2023-07-31T00:44:04;0.63;;;0.63;;
14900;SDS011;7542;49.078;9.194;2023-07-31T00:45:06;1.48;;;0.63;;
14900;SDS011;7542;49.078;9.194;2023-07-31T00:46:09;1.65;;;0.60;;
14900;SDS011;7542;49.078;9.194;2023-07-31T00:47:11;0.70;;;0.70;;
14900;SDS011;7542;49.078;9.194;2023-07-31T00:48:13;0.50;;;0.50;;
14900;SDS011;7542;49.078;9.194;2023-07-31T00:49:15;0.85;;;0.75;;
14900;SDS011;7542;49.078;9.194;2023-07-31T00:50:18;0.80;;;0.50;;
14900;SDS011;7542;49.078;9.194;2023-07-31T00:51:20;0.88;;;0.60;;
14900;SDS011;7542;49.078;9.194;2023-07-31T00:52:22;0.47;;;0.43;;
14900;SDS011;7542;49.078;9.194;2023-07-31T00:53:25;0.45;;;0.45;;
14900;SDS011;7542;49.078;9.194;2023-07-31T00:54:27;0.43;;;0.43;;
14900;SDS011;7542;49.078;9.194;2023-07-31T00:55:29;1.05;;;0.45;;
14900;SDS011;7542;49.078;9.194;2023-07-31T00:56:32;0.63;;;0.57;;
14900;SDS011;7542;49.078;9.194;2023-07-31T00:57:35;0.57;;;0.57;;
14900;SDS011;7542;49.078;9.194;2023-07-31T00:58:41;0.70;;;0.70;;
14900;SDS011;7542;49.078;9.194;2023-07-31T00:59:43;0.70;;;0.70;;
14900;SDS011;7542;49.078;9.194;2023-07-31T01:00:45;0.60;;;0.50;;
14900;SDS011;7542;49.078;9.194;2023-07-31T01:01:47;1.02;;;0.80;;
14900;SDS011;7542;49.078;9.194;2023-07-31T01:02:50;0.38;;;0.38;;
14900;SDS011;7542;49.078;9.194;2023-07-31T01:03:53;0.45;;;0.45;;
14900;SDS011;7542;49.078;9.194;2023-07-31T01:04:55;1.10;;;0.38;;
14900;SDS011;7542;49.078;9.194;2023-07-31T01:10:37;0.45;;;0.45;;
14900;SDS011;7542;49.078;9.194;2023-07-31T01:12:00;0.57;;;0.57;;
14900;SDS011;7542;49.078;9.194;2023-07-31T01:13:04;0.80;;;0.50;;
14900;SDS011;7542;49.078;9.194;2023-07-31T01:14:07;0.57;;;0.40;;
14900;SDS011;7542;49.078;9.194;2023-07-31T01:15:09;0.95;;;0.50;;
14900;SDS011;7542;49.078;9.194;2023-07-31T01:16:16;0.52;;;0.45;;
14900;SDS011;7542;49.078;9.194;2023-07-31T01:17:18;1.90;;;0.70;;
14900;SDS011;7542;49.078;9.194;2023-07-31T01:18:21;0.50;;;0.50;;
14900;SDS011;7542;49.078;9.194;2023-07-31T01:19:24;1.42;;;0.90;;
14900;SDS011;7542;49.078;9.194;2023-07-31T01:20:32;0.73;;;0.45;;
14900;SDS011;7542;49.078;9.194;2023-07-31T01:21:43;1.02;;;0.75;;
14900;SDS011;7542;49.078;9.194;2023-07-31T01:26:18;0.50;;;0.50;;
14900;SDS011;7542;49.078;9.194;2023-07-31T01:27:34;2.05;;;0.70;;
14900;SDS011;7542;49.078;9.194;2023-07-31T01:30:16;1.38;;;0.80;;
14900;SDS011;7542;49.078;9.194;2023-07-31T01:31:26;0.50;;;0.50;;
14900;SDS011;7542;49.078;9.194;2023-07-31T01:32:31;0.70;;;0.68;;
14900;SDS011;7542;49.078;9.194;2023-07-31T01:33:35;0.60;;;0.60;;
14900;SDS011;7542;49.078;9.194;2023-07-31T01:34:39;1.67;;;0.55;;
14900;SDS011;7542;49.078;9.194;2023-07-31T01:35:45;1.33;;;0.70;;
14900;SDS011;7542;49.078;9.194;2023-07-31T01:36:50;0.60;;;0.60;;
14900;SDS011;7542;49.078;9.194;2023-07-31T01:37:52;1.00;;;0.50;;
14900;SDS011;7542;49.078;9.194;2023-07-31T01:39:01;0.80;;;0.80;;
14900;SDS011;7542;49.078;9.194;2023-07-31T01:40:05;1.40;;;0.80;;
14900;SDS011;7542;49.078;9.194;2023-07-31T01:41:10;1.10;;;0.98;;
14900;SDS011;7542;49.078;9.194;2023-07-31T01:42:12;0.75;;;0.73;;
14900;SDS011;7542;49.078;9.194;2023-07-31T01:43:14;0.60;;;0.50;;
14900;SDS011;7542;49.078;9.194;2023-07-31T01:44:16;0.50;;;0.50;;
14900;SDS011;7542;49.078;9.194;2023-07-31T01:45:18;0.70;;;0.70;;
14900;SDS011;7542;49.078;9.194;2023-07-31T01:46:20;0.60;;;0.60;;
14900;SDS011;7542;49.078;9.194;2023-07-31T01:47:22;0.63;;;0.60;;
14900;SDS011;7542;49.078;9.194;2023-07-31T01:48:25;1.05;;;0.70;;
14900;SDS011;7542;49.078;9.194;2023-07-31T01:49:27;0.43;;;0.43;;
14900;SDS011;7542;49.078;9.194;2023-07-31T01:50:28;0.80;;;0.80;;
14900;SDS011;7542;49.078;9.194;2023-07-31T01:51:30;0.57;;;0.52;;
14900;SDS011;7542;49.078;9.194;2023-07-31T01:52:35;0.80;;;0.80;;
14900;SDS011;7542;49.078;9.194;2023-07-31T01:53:37;0.55;;;0.55;;
14900;SDS011;7542;49.078;9.194;2023-07-31T01:54:40;0.50;;;0.50;;
14900;SDS011;7542;49.078;9.194;2023-07-31T01:55:42;0.47;;;0.47;;
14900;SDS011;7542;49.078;9.194;2023-07-31T01:56:44;0.73;;;0.60;;
14900;SDS011;7542;49.078;9.194;2023-07-31T01:57:46;0.50;;;0.50;;
14900;SDS011;7542;49.078;9.194;2023-07-31T01:58:49;0.60;;;0.60;;
14900;SDS011;7542;49.078;9.194;2023-07-31T01:59:51;0.57;;;0.57;;
14900;SDS011;7542;49.078;9.194;2023-07-31T02:00:54;0.52;;;0.52;;
14900;SDS011;7542;49.078;9.194;2023-07-31T02:01:56;0.80;;;0.80;;
14900;SDS011;7542;49.078;9.194;2023-07-31T02:02:59;0.50;;;0.50;;
14900;SDS011;7542;49.078;9.194;2023-07-31T02:04:01;1.00;;;0.63;;
14900;SDS011;7542;49.078;9.194;2023-07-31T02:05:04;0.75;;;0.75;;
14900;SDS011;7542;49.078;9.194;2023-07-31T02:06:06;0.57;;;0.57;;
14900;SDS011;7542;49.078;9.194;2023-07-31T02:07:08;1.23;;;0.75;;
14900;SDS011;7542;49.078;9.194;2023-07-31T02:08:10;0.75;;;0.63;;
14900;SDS011;7542;49.078;9.194;2023-07-31T02:09:12;2.33;;;0.80;;
14900;SDS011;7542;49.078;9.194;2023-07-31T02:10:14;0.73;;;0.70;;
14900;SDS011;7542;49.078;9.194;2023-07-31T02:11:17;0.60;;;0.60;;
14900;SDS011;7542;49.078;9.194;2023-07-31T02:12:19;0.68;;;0.60;;
14900;SDS011;7542;49.078;9.194;2023-07-31T02:13:21;0.98;;;0.63;;
14900;SDS011;7542;49.078;9.194;2023-07-31T02:14:24;1.65;;;0.70;;
14900;SDS011;7542;49.078;9.194;2023-07-31T02:15:26;0.63;;;0.63;;
14900;SDS011;7542;49.078;9.194;2023-07-31T02:16:28;1.33;;;0.63;;
14900;SDS011;7542;49.078;9.194;2023-07-31T02:17:30;0.40;;;0.40;;
14900;SDS011;7542;49.078;9.194;2023-07-31T02:18:32;0.70;;;0.70;;
14900;SDS011;7542;49.078;9.194;2023-07-31T02:19:34;1.20;;;0.80;;
14900;SDS011;7542;49.078;9.194;2023-07-31T02:20:36;1.55;;;0.70;;
14900;SDS011;7542;49.078;9.194;2023-07-31T02:21:38;0.98;;;0.70;;
14900;SDS011;7542;49.078;9.194;2023-07-31T02:22:40;0.80;;;0.60;;
14900;SDS011;7542;49.078;9.194;2023-07-31T02:23:42;0.60;;;0.52;;
14900;SDS011;7542;49.078;9.194;2023-07-31T02:24:45;0.52;;;0.52;;
14900;SDS011;7542;49.078;9.194;2023-07-31T02:25:47;0.65;;;0.63;;
14900;SDS011;7542;49.078;9.194;2023-07-31T02:26:49;0.75;;;0.75;;
14900;SDS011;7542;49.078;9.194;2023-07-31T02:27:51;0.77;;;0.55;;
14900;SDS011;7542;49.078;9.194;2023-07-31T02:28:53;0.63;;;0.50;;
14900;SDS011;7542;49.078;9.194;2023-07-31T02:29:55;0.88;;;0.85;;
14900;SDS011;7542;49.078;9.194;2023-07-31T02:30:57;0.77;;;0.77;;
14900;SDS011;7542;49.078;9.194;2023-07-31T02:31:59;0.80;;;0.63;;
14900;SDS011;7542;49.078;9.194;2023-07-31T02:33:01;1.65;;;0.60;;
14900;SDS011;7542;49.078;9.194;2023-07-31T02:34:05;1.15;;;1.02;;
14900;SDS011;7542;49.078;9.194;2023-07-31T02:35:07;0.70;;;0.70;;
14900;SDS011;7542;49.078;9.194;2023-07-31T02:36:09;0.60;;;0.60;;
14900;SDS011;7542;49.078;9.194;2023-07-31T02:37:11;0.70;;;0.70;;
14900;SDS011;7542;49.078;9.194;2023-07-31T02:38:13;0.80;;;0.80;;
14900;SDS011;7542;49.078;9.194;2023-07-31T02:39:15;0.95;;;0.90;;
14900;SDS011;7542;49.078;9.194;2023-07-31T02:40:17;0.70;;;0.70;;
14900;SDS011;7542;49.078;9.194;2023-07-31T02:41:19;0.70;;;0.70;;
14900;SDS011;7542;49.078;9.194;2023-07-31T02:42:21;0.50;;;0.50;;
14900;SDS011;7542;49.078;9.194;2023-07-31T02:43:23;0.68;;;0.65;;
14900;SDS011;7542;49.078;9.194;2023-07-31T02:44:25;0.70;;;0.70;;
14900;SDS011;7542;49.078;9.194;2023-07-31T02:45:27;0.90;;;0.90;;
14900;SDS011;7542;49.078;9.194;2023-07-31T02:46:30;0.68;;;0.68;;
14900;SDS011;7542;49.078;9.194;2023-07-31T02:47:32;1.05;;;0.70;;
14900;SDS011;7542;49.078;9.194;2023-07-31T02:48:34;0.73;;;0.73;;
14900;SDS011;7542;49.078;9.194;2023-07-31T02:49:36;0.70;;;0.70;;
14900;SDS011;7542;49.078;9.194;2023-07-31T02:50:37;0.90;;;0.88;;
14900;SDS011;7542;49.078;9.194;2023-07-31T02:51:40;0.90;;;0.60;;
14900;SDS011;7542;49.078;9.194;2023-07-31T02:52:42;1.60;;;0.68;;
14900;SDS011;7542;49.078;9.194;2023-07-31T02:53:44;0.52;;;0.52;;
14900;SDS011;7542;49.078;9.194;2023-07-31T02:54:46;0.77;;;0.77;;
14900;SDS011;7542;49.078;9.194;2023-07-31T02:55:48;0.90;;;0.80;;
14900;SDS011;7542;49.078;9.194;2023-07-31T02:56:50;0.73;;;0.60;;
14900;SDS011;7542;49.078;9.194;2023-07-31T02:57:52;0.90;;;0.90;;
14900;SDS011;7542;49.078;9.194;2023-07-31T02:58:54;1.00;;;1.00;;
14900;SDS011;7542;49.078;9.194;2023-07-31T02:59:56;0.70;;;0.70;;
14900;SDS011;7542;49.078;9.194;2023-07-31T03:00:59;2.20;;;0.70;;
14900;SDS011;7542;49.078;9.194;2023-07-31T03:02:01;0.70;;;0.52;;
14900;SDS011;7542;49.078;9.194;2023-07-31T03:03:03;0.82;;;0.70;;
14900;SDS011;7542;49.078;9.194;2023-07-31T03:04:05;1.73;;;0.73;;
14900;SDS011;7542;49.078;9.194;2023-07-31T03:05:08;0.60;;;0.60;;
14900;SDS011;7542;49.078;9.194;2023-07-31T03:06:10;1.02;;;1.02;;
14900;SDS011;7542;49.078;9.194;2023-07-31T03:07:12;1.10;;;0.80;;
14900;SDS011;7542;49.078;9.194;2023-07-31T03:08:14;0.80;;;0.80;;
14900;SDS011;7542;49.078;9.194;2023-07-31T03:09:16;1.10;;;0.73;;
14900;SDS011;7542;49.078;9.194;2023-07-31T03:10:18;1.00;;;0.85;;
14900;SDS011;7542;49.078;9.194;2023-07-31T03:11:20;1.13;;;0.57;;
14900;SDS011;7542;49.078;9.194;2023-07-31T03:12:23;0.80;;;0.80;;
14900;SDS011;7542;49.078;9.194;2023-07-31T03:13:25;0.68;;;0.68;;
14900;SDS011;7542;49.078;9.194;2023-07-31T03:14:27;0.90;;;0.90;;
14900;SDS011;7542;49.078;9.194;2023-07-31T03:15:29;1.05;;;0.90;;
14900;SDS011;7542;49.078;9.194;2023-07-31T03:16:31;1.00;;;1.00;;
14900;SDS011;7542;49.078;9.194;2023-07-31T03:17:34;0.73;;;0.73;;
14900;SDS011;7542;49.078;9.194;2023-07-31T03:18:36;0.82;;;0.82;;
14900;SDS011;7542;49.078;9.194;2023-07-31T03:19:38;0.93;;;0.93;;
14900;SDS011;7542;49.078;9.194;2023-07-31T03:20:43;0.93;;;0.77;;
14900;SDS011;7542;49.078;9.194;2023-07-31T03:21:45;1.02;;;0.60;;
14900;SDS011;7542;49.078;9.194;2023-07-31T03:22:47;1.23;;;0.70;;
14900;SDS011;7542;49.078;9.194;2023-07-31T03:23:49;1.13;;;0.73;;
14900;SDS011;7542;49.078;9.194;2023-07-31T03:24:51;1.02;;;0.55;;
14900;SDS011;7542;49.078;9.194;2023-07-31T03:25:57;0.70;;;0.70;;
14900;SDS011;7542;49.078;9.194;2023-07-31T03:27:00;1.88;;;0.80;;
14900;SDS011;7542;49.078;9.194;2023-07-31T03:28:02;1.90;;;0.63;;
14900;SDS011;7542;49.078;9.194;2023-07-31T03:29:04;0.93;;;0.75;;
14900;SDS011;7542;49.078;9.194;2023-07-31T03:30:07;0.93;;;0.80;;
14900;SDS011;7542;49.078;9.194;2023-07-31T03:31:09;1.02;;;0.90;;
14900;SDS011;7542;49.078;9.194;2023-07-31T03:32:12;0.80;;;0.80;;
14900;SDS011;7542;49.078;9.194;2023-07-31T03:33:14;0.68;;;0.68;;
14900;SDS011;7542;49.078;9.194;2023-07-31T03:34:16;1.30;;;0.63;;
14900;SDS011;7542;49.078;9.194;2023-07-31T03:35:18;0.70;;;0.70;;
14900;SDS011;7542;49.078;9.194;2023-07-31T03:36:20;1.38;;;0.60;;
14900;SDS011;7542;49.078;9.194;2023-07-31T03:37:23;0.70;;;0.70;;
14900;SDS011;7542;49.078;9.194;2023-07-31T03:38:25;0.80;;;0.80;;
14900;SDS011;7542;49.078;9.194;2023-07-31T03:39:27;0.90;;;0.90;;
14900;SDS011;7542;49.078;9.194;2023-07-31T03:40:29;2.42;;;0.98;;
14900;SDS011;7542;49.078;9.194;2023-07-31T03:41:31;0.70;;;0.70;;
14900;SDS011;7542;49.078;9.194;2023-07-31T03:42:35;0.80;;;0.80;;
14900;SDS011;7542;49.078;9.194;2023-07-31T03:43:37;1.77;;;0.70;;
14900;SDS011;7542;49.078;9.194;2023-07-31T03:44:39;0.77;;;0.70;;
14900;SDS011;7542;49.078;9.194;2023-07-31T03:45:41;1.20;;;0.95;;
14900;SDS011;7542;49.078;9.194;2023-07-31T03:46:44;1.00;;;0.88;;
14900;SDS011;7542;49.078;9.194;2023-07-31T03:47:46;0.65;;;0.65;;
14900;SDS011;7542;49.078;9.194;2023-07-31T03:48:48;0.70;;;0.70;;
14900;SDS011;7542;49.078;9.194;2023-07-31T03:49:50;0.65;;;0.63;;
14900;SDS011;7542;49.078;9.194;2023-07-31T03:50:52;1.15;;;0.70;;
14900;SDS011;7542;49.078;9.194;2023-07-31T03:51:54;0.85;;;0.77;;
14900;SDS011;7542;49.078;9.194;2023-07-31T03:52:56;1.10;;;0.70;;
14900;SDS011;7542;49.078;9.194;2023-07-31T03:53:58;1.10;;;0.82;;
14900;SDS011;7542;49.078;9.194;2023-07-31T03:55:01;1.60;;;0.80;;
14900;SDS011;7542;49.078;9.194;2023-07-31T03:56:03;0.70;;;0.70;;
14900;SDS011;7542;49.078;9.194;2023-07-31T03:57:05;0.73;;;0.73;;
14900;SDS011;7542;49.078;9.194;2023-07-31T03:58:07;1.50;;;0.67;;
14900;SDS011;7542;49.078;9.194;2023-07-31T03:59:09;0.75;;;0.70;;
14900;SDS011;7542;49.078;9.194;2023-07-31T04:00:11;0.75;;;0.75;;
14900;SDS011;7542;49.078;9.194;2023-07-31T04:01:14;1.40;;;0.90;;
14900;SDS011;7542;49.078;9.194;2023-07-31T04:02:16;1.45;;;0.85;;
14900;SDS011;7542;49.078;9.194;2023-07-31T04:03:20;2.65;;;0.70;;
14900;SDS011;7542;49.078;9.194;2023-07-31T04:04:22;0.98;;;0.82;;
14900;SDS011;7542;49.078;9.194;2023-07-31T04:05:24;0.63;;;0.63;;
14900;SDS011;7542;49.078;9.194;2023-07-31T04:06:26;0.85;;;0.85;;
14900;SDS011;7542;49.078;9.194;2023-07-31T04:07:28;0.98;;;0.75;;
14900;SDS011;7542;49.078;9.194;2023-07-31T04:08:30;0.73;;;0.73;;
14900;SDS011;7542;49.078;9.194;2023-07-31T04:09:32;0.60;;;0.60;;
14900;SDS011;7542;49.078;9.194;2023-07-31T04:10:34;0.88;;;0.88;;
14900;SDS011;7542;49.078;9.194;2023-07-31T04:11:36;0.70;;;0.68;;
14900;SDS011;7542;49.078;9.194;2023-07-31T04:12:40;1.65;;;0.90;;
14900;SDS011;7542;49.078;9.194;2023-07-31T04:13:42;1.05;;;0.77;;
14900;SDS011;7542;49.078;9.194;2023-07-31T04:14:44;0.80;;;0.80;;
14900;SDS011;7542;49.078;9.194;2023-07-31T04:15:49;0.80;;;0.80;;
14900;SDS011;7542;49.078;9.194;2023-07-31T04:16:52;1.00;;;0.90;;
14900;SDS011;7542;49.078;9.194;2023-07-31T04:17:54;0.80;;;0.80;;
14900;SDS011;7542;49.078;9.194;2023-07-31T04:18:57;1.00;;;0.70;;
14900;SDS011;7542;49.078;9.194;2023-07-31T04:19:59;0.65;;;0.65;;
14900;SDS011;7542;49.078;9.194;2023-07-31T04:21:01;0.93;;;0.70;;
14900;SDS011;7542;49.078;9.194;2023-07-31T04:22:03;0.60;;;0.60;;
14900;SDS011;7542;49.078;9.194;2023-07-31T04:23:06;1.20;;;0.82;;
14900;SDS011;7542;49.078;9.194;2023-07-31T04:24:08;0.75;;;0.70;;
14900;SDS011;7542;49.078;9.194;2023-07-31T04:25:10;1.00;;;0.85;;
14900;SDS011;7542;49.078;9.194;2023-07-31T04:26:12;0.90;;;0.90;;
14900;SDS011;7542;49.078;9.194;2023-07-31T04:27:15;1.10;;;0.88;;
14900;SDS011;7542;49.078;9.194;2023-07-31T04:28:17;1.03;;;0.90;;
14900;SDS011;7542;49.078;9.194;2023-07-31T04:29:19;0.93;;;0.70;;
14900;SDS011;7542;49.078;9.194;2023-07-31T04:30:21;0.97;;;0.70;;
14900;SDS011;7542;49.078;9.194;2023-07-31T04:31:23;0.73;;;0.73;;
14900;SDS011;7542;49.078;9.194;2023-07-31T04:32:25;0.60;;;0.60;;
14900;SDS011;7542;49.078;9.194;2023-07-31T04:33:28;1.63;;;0.95;;
14900;SDS011;7542;49.078;9.194;2023-07-31T04:34:30;0.80;;;0.80;;
14900;SDS011;7542;49.078;9.194;2023-07-31T04:35:32;1.05;;;0.80;;
14900;SDS011;7542;49.078;9.194;2023-07-31T04:36:34;0.85;;;0.50;;
14900;SDS011;7542;49.078;9.194;2023-07-31T04:37:37;0.95;;;0.70;;
14900;SDS011;7542;49.078;9.194;2023-07-31T04:38:39;1.55;;;0.82;;
14900;SDS011;7542;49.078;9.194;2023-07-31T04:39:42;0.88;;;0.85;;
14900;SDS011;7542;49.078;9.194;2023-07-31T04:40:44;0.75;;;0.60;;
14900;SDS011;7542;49.078;9.194;2023-07-31T04:41:46;1.08;;;0.80;;
14900;SDS011;7542;49.078;9.194;2023-07-31T04:42:49;0.95;;;0.70;;
14900;SDS011;7542;49.078;9.194;2023-07-31T04:43:51;1.20;;;0.80;;
14900;SDS011;7542;49.078;9.194;2023-07-31T04:44:53;0.77;;;0.77;;
14900;SDS011;7542;49.078;9.194;2023-07-31T04:45:55;1.13;;;0.70;;
14900;SDS011;7542;49.078;9.194;2023-07-31T04:46:57;0.70;;;0.70;;
14900;SDS011;7542;49.078;9.194;2023-07-31T04:47:59;1.00;;;0.65;;
14900;SDS011;7542;49.078;9.194;2023-07-31T04:49:03;0.70;;;0.70;;
14900;SDS011;7542;49.078;9.194;2023-07-31T04:50:05;0.88;;;0.75;;
14900;SDS011;7542;49.078;9.194;2023-07-31T04:51:07;0.70;;;0.70;;
14900;SDS011;7542;49.078;9.194;2023-07-31T04:52:10;0.88;;;0.88;;
14900;SDS011;7542;49.078;9.194;2023-07-31T04:53:12;0.98;;;0.70;;
14900;SDS011;7542;49.078;9.194;2023-07-31T04:54:14;0.77;;;0.77;;
14900;SDS011;7542;49.078;9.194;2023-07-31T04:55:16;1.08;;;0.90;;
14900;SDS011;7542;49.078;9.194;2023-07-31T04:56:18;1.10;;;0.80;;
14900;SDS011;7542;49.078;9.194;2023-07-31T04:57:20;0.50;;;0.50;;
14900;SDS011;7542;49.078;9.194;2023-07-31T04:58:22;0.85;;;0.85;;
14900;SDS011;7542;49.078;9.194;2023-07-31T04:59:24;0.73;;;0.70;;
14900;SDS011;7542;49.078;9.194;2023-07-31T05:00:26;0.80;;;0.80;;
14900;SDS011;7542;49.078;9.194;2023-07-31T05:01:28;0.63;;;0.63;;
14900;SDS011;7542;49.078;9.194;2023-07-31T05:02:30;0.70;;;0.70;;
14900;SDS011;7542;49.078;9.194;2023-07-31T05:03:32;0.90;;;0.90;;
14900;SDS011;7542;49.078;9.194;2023-07-31T05:04:35;0.70;;;0.63;;
14900;SDS011;7542;49.078;9.194;2023-07-31T05:05:37;0.97;;;0.73;;
14900;SDS011;7542;49.078;9.194;2023-07-31T05:06:39;0.60;;;0.60;;
14900;SDS011;7542;49.078;9.194;2023-07-31T05:07:42;1.55;;;0.90;;
14900;SDS011;7542;49.078;9.194;2023-07-31T05:08:44;1.20;;;0.85;;
14900;SDS011;7542;49.078;9.194;2023-07-31T05:09:46;1.40;;;0.88;;
14900;SDS011;7542;49.078;9.194;2023-07-31T05:10:48;0.70;;;0.70;;
14900;SDS011;7542;49.078;9.194;2023-07-31T05:11:51;0.80;;;0.80;;
14900;SDS011;7542;49.078;9.194;2023-07-31T05:12:53;1.10;;;0.80;;
14900;SDS011;7542;49.078;9.194;2023-07-31T05:13:55;0.85;;;0.65;;
14900;SDS011;7542;49.078;9.194;2023-07-31T05:14:57;2.28;;;0.60;;
14900;SDS011;7542;49.078;9.194;2023-07-31T05:15:59;0.95;;;0.73;;
14900;SDS011;7542;49.078;9.194;2023-07-31T05:17:03;0.95;;;0.90;;
14900;SDS011;7542;49.078;9.194;2023-07-31T05:18:06;0.70;;;0.70;;
14900;SDS011;7542;49.078;9.194;2023-07-31T05:19:08;0.60;;;0.60;;
14900;SDS011;7542;49.078;9.194;2023-07-31T05:20:10;1.23;;;0.80;;
14900;SDS011;7542;49.078;9.194;2023-07-31T05:21:13;0.87;;;0.70;;
14900;SDS011;7542;49.078;9.194;2023-07-31T05:22:15;1.53;;;0.67;;
14900;SDS011;7542;49.078;9.194;2023-07-31T05:23:17;0.73;;;0.73;;
14900;SDS011;7542;49.078;9.194;2023-07-31T05:24:18;0.90;;;0.90;;
14900;SDS011;7542;49.078;9.194;2023-07-31T05:25:20;0.98;;;0.73;;
14900;SDS011;7542;49.078;9.194;2023-07-31T05:26:22;0.80;;;0.80;;
14900;SDS011;7542;49.078;9.194;2023-07-31T05:27:25;0.55;;;0.52;;
14900;SDS011;7542;49.078;9.194;2023-07-31T05:28:27;2.30;;;0.77;;
14900;SDS011;7542;49.078;9.194;2023-07-31T05:29:29;0.50;;;0.50;;
14900;SDS011;7542;49.078;9.194;2023-07-31T05:30:31;3.13;;;0.80;;
14900;SDS011;7542;49.078;9.194;2023-07-31T05:31:33;0.85;;;0.85;;
14900;SDS011;7542;49.078;9.194;2023-07-31T05:32:35;1.13;;;0.60;;
14900;SDS011;7542;49.078;9.194;2023-07-31T05:33:37;2.90;;;0.80;;
14900;SDS011;7542;49.078;9.194;2023-07-31T05:34:38;2.30;;;0.90;;
14900;SDS011;7542;49.078;9.194;2023-07-31T05:35:41;0.90;;;0.60;;
14900;SDS011;7542;49.078;9.194;2023-07-31T05:36:43;2.70;;;0.82;;
14900;SDS011;7542;49.078;9.194;2023-07-31T05:37:45;2.78;;;0.80;;
14900;SDS011;7542;49.078;9.194;2023-07-31T05:38:47;1.60;;;0.80;;
14900;SDS011;7542;49.078;9.194;2023-07-31T05:39:49;0.73;;;0.73;;
14900;SDS011;7542;49.078;9.194;2023-07-31T05:40:51;2.00;;;1.00;;
14900;SDS011;7542;49.078;9.194;2023-07-31T05:41:53;6.00;;;0.80;;
14900;SDS011;7542;49.078;9.194;2023-07-31T05:42:55;1.10;;;0.98;;
14900;SDS011;7542;49.078;9.194;2023-07-31T05:43:57;4.70;;;1.00;;
14900;SDS011;7542;49.078;9.194;2023-07-31T05:44:59;1.57;;;0.83;;
14900;SDS011;7542;49.078;9.194;2023-07-31T05:46:01;1.27;;;1.17;;
14900;SDS011;7542;49.078;9.194;2023-07-31T05:47:06;3.10;;;1.10;;
14900;SDS011;7542;49.078;9.194;2023-07-31T05:48:08;2.97;;;1.20;;
14900;SDS011;7542;49.078;9.194;2023-07-31T05:49:10;1.42;;;1.30;;
14900;SDS011;7542;49.078;9.194;2023-07-31T05:50:12;2.78;;;1.20;;
14900;SDS011;7542;49.078;9.194;2023-07-31T05:51:15;3.08;;;1.30;;
14900;SDS011;7542;49.078;9.194;2023-07-31T05:52:18;1.25;;;0.90;;
14900;SDS011;7542;49.078;9.194;2023-07-31T05:53:20;2.85;;;1.13;;
14900;SDS011;7542;49.078;9.194;2023-07-31T05:54:22;2.55;;;1.35;;
14900;SDS011;7542;49.078;9.194;2023-07-31T05:55:24;1.13;;;1.03;;
14900;SDS011;7542;49.078;9.194;2023-07-31T05:56:30;2.00;;;1.17;;
14900;SDS011;7542;49.078;9.194;2023-07-31T05:57:32;1.40;;;1.30;;
14900;SDS011;7542;49.078;9.194;2023-07-31T05:58:34;1.52;;;1.05;;
14900;SDS011;7542;49.078;9.194;2023-07-31T05:59:36;1.48;;;1.33;;
14900;SDS011;7542;49.078;9.194;2023-07-31T06:00:38;3.53;;;1.27;;
14900;SDS011;7542;49.078;9.194;2023-07-31T06:01:42;2.40;;;1.20;;
14900;SDS011;7542;49.078;9.194;2023-07-31T06:02:44;1.90;;;1.40;;
14900;SDS011;7542;49.078;9.194;2023-07-31T06:03:46;4.00;;;1.30;;
14900;SDS011;7542;49.078;9.194;2023-07-31T06:04:48;2.17;;;1.30;;
14900;SDS011;7542;49.078;9.194;2023-07-31T06:05:50;4.50;;;1.52;;
14900;SDS011;7542;49.078;9.194;2023-07-31T06:06:52;3.17;;;1.27;;
14900;SDS011;7542;49.078;9.194;2023-07-31T06:07:55;1.25;;;1.15;;
14900;SDS011;7542;49.078;9.194;2023-07-31T06:08:58;2.05;;;1.10;;
14900;SDS011;7542;49.078;9.194;2023-07-31T06:10:00;1.25;;;1.00;;
14900;SDS011;7542;49.078;9.194;2023-07-31T06:11:04;2.72;;;1.25;;
14900;SDS011;7542;49.078;9.194;2023-07-31T06:12:07;1.85;;;1.27;;
14900;SDS011;7542;49.078;9.194;2023-07-31T06:13:10;2.13;;;1.48;;
14900;SDS011;7542;49.078;9.194;2023-07-31T06:14:12;3.05;;;1.10;;
14900;SDS011;7542;49.078;9.194;2023-07-31T06:15:13;1.77;;;1.00;;
14900;SDS011;7542;49.078;9.194;2023-07-31T06:16:16;2.78;;;1.00;;
14900;SDS011;7542;49.078;9.194;2023-07-31T06:17:18;1.05;;;1.02;;
14900;SDS011;7542;49.078;9.194;2023-07-31T06:18:20;2.78;;;1.30;;
14900;SDS011;7542;49.078;9.194;2023-07-31T06:19:22;2.67;;;1.37;;
14900;SDS011;7542;49.078;9.194;2023-07-31T06:20:24;3.97;;;1.58;;
14900;SDS011;7542;49.078;9.194;2023-07-31T06:21:26;2.25;;;0.95;;
14900;SDS011;7542;49.078;9.194;2023-07-31T06:22:28;1.83;;;1.17;;
14900;SDS011;7542;49.078;9.194;2023-07-31T06:23:30;2.80;;;1.45;;
14900;SDS011;7542;49.078;9.194;2023-07-31T06:24:33;3.75;;;1.50;;
14900;SDS011;7542;49.078;9.194;2023-07-31T06:25:35;2.63;;;1.15;;
14900;SDS011;7542;49.078;9.194;2023-07-31T06:26:37;1.40;;;1.10;;
14900;SDS011;7542;49.078;9.194;2023-07-31T06:27:40;2.60;;;1.10;;
14900;SDS011;7542;49.078;9.194;2023-07-31T06:28:42;2.28;;;1.30;;
14900;SDS011;7542;49.078;9.194;2023-07-31T06:29:44;1.17;;;1.10;;
14900;SDS011;7542;49.078;9.194;2023-07-31T06:30:46;2.10;;;1.40;;
14900;SDS011;7542;49.078;9.194;2023-07-31T06:31:48;4.35;;;1.63;;